createdAt,value
2023-01-13T00:00:14.058Z,99.99
2023-01-13T00:01:14.425Z,99.99
2023-01-13T00:02:14.020Z,99.99
2023-01-13T00:03:14.342Z,99.99
2023-01-13T00:04:13.930Z,99.99
2023-01-13T00:05:13.941Z,99.99
2023-01-13T00:06:13.921Z,99.99
2023-01-13T00:07:13.954Z,99.99
2023-01-13T00:08:13.920Z,99.99
2023-01-13T00:09:14.282Z,99.99
2023-01-13T00:10:13.900Z,99.99
2023-01-13T00:11:14.087Z,99.99
2023-01-13T00:12:14.236Z,99.99
2023-01-13T00:13:13.812Z,99.99
2023-01-13T00:14:13.847Z,99.99
2023-01-13T00:15:13.793Z,99.99
2023-01-13T00:16:13.990Z,99.99
2023-01-13T00:17:13.806Z,99.99
2023-01-13T00:18:13.754Z,99.99
2023-01-13T00:19:13.740Z,99.99
2023-01-13T00:20:13.971Z,99.99
2023-01-13T00:21:13.731Z,99.99
2023-01-13T00:22:13.717Z,99.99
2023-01-13T00:23:14.225Z,99.99
2023-01-13T00:24:13.687Z,99.99
2023-01-13T00:25:14.012Z,99.99
2023-01-13T00:26:13.672Z,99.99
2023-01-13T00:27:14.106Z,99.99
2023-01-13T00:28:14.013Z,99.99
2023-01-13T00:29:13.606Z,99.99
2023-01-13T00:30:13.611Z,99.99
2023-01-13T00:31:13.969Z,99.99
2023-01-13T00:32:13.850Z,99.99
2023-01-13T00:33:13.599Z,99.99
2023-01-13T00:34:13.933Z,99.99
2023-01-13T00:35:13.560Z,99.99
2023-01-13T00:36:13.757Z,99.99
2023-01-13T00:37:13.870Z,99.99
2023-01-13T00:38:13.528Z,99.99
2023-01-13T00:39:13.550Z,99.99
2023-01-13T00:40:13.863Z,99.99
2023-01-13T00:41:13.757Z,99.99
2023-01-13T00:42:13.491Z,99.99
2023-01-13T00:43:13.500Z,99.99
2023-01-13T00:44:13.430Z,99.99
2023-01-13T00:45:13.575Z,99.99
2023-01-13T00:46:13.442Z,99.99
2023-01-13T00:47:13.679Z,99.99
2023-01-13T00:48:13.380Z,99.99
2023-01-13T00:49:13.349Z,99.99
2023-01-13T00:50:13.348Z,99.99
2023-01-13T00:51:13.811Z,99.99
2023-01-13T00:52:13.316Z,99.99
2023-01-13T00:53:13.619Z,99.99
2023-01-13T00:54:13.286Z,99.99
2023-01-13T00:55:13.270Z,99.99
2023-01-13T00:56:13.609Z,99.99
2023-01-13T00:57:13.749Z,99.99
2023-01-13T00:58:13.649Z,99.99
2023-01-13T00:59:13.586Z,99.99
2023-01-13T01:00:13.189Z,99.99
2023-01-13T01:01:13.298Z,99.99
2023-01-13T01:02:13.274Z,99.99
2023-01-13T01:03:13.437Z,99.99
2023-01-13T01:04:13.602Z,99.99
2023-01-13T01:05:13.142Z,99.99
2023-01-13T01:06:13.261Z,99.99
2023-01-13T01:07:13.309Z,99.99
2023-01-13T01:08:13.142Z,99.99
2023-01-13T01:09:13.395Z,99.99
2023-01-13T01:10:13.068Z,99.99
2023-01-13T01:11:13.107Z,99.99
2023-01-13T01:12:13.037Z,99.99
2023-01-13T01:13:13.122Z,99.99
2023-01-13T01:14:13.179Z,99.99
2023-01-13T01:15:13.049Z,99.99
2023-01-13T01:16:13.269Z,99.99
2023-01-13T01:17:13.147Z,99.99
2023-01-13T01:18:13.207Z,99.99
2023-01-13T01:19:13.025Z,99.99
2023-01-13T01:20:13.035Z,99.99
2023-01-13T01:21:13.077Z,99.99
2023-01-13T01:22:13.152Z,99.99
2023-01-13T01:23:13.206Z,99.99
2023-01-13T01:24:13.216Z,99.99
2023-01-13T01:25:13.108Z,99.99
2023-01-13T01:26:13.075Z,99.99
2023-01-13T01:27:13.222Z,99.99
2023-01-13T01:28:13.075Z,99.99
2023-01-13T01:29:12.978Z,99.99
2023-01-13T01:30:13.085Z,99.99
2023-01-13T01:31:13.077Z,99.99
2023-01-13T01:32:12.783Z,99.99
2023-01-13T01:33:12.803Z,99.99
2023-01-13T01:34:12.768Z,99.99
2023-01-13T01:35:12.757Z,99.99
2023-01-13T01:36:12.740Z,99.99
2023-01-13T01:37:13.962Z,99.99
2023-01-13T01:38:13.044Z,99.99
2023-01-13T01:39:13.039Z,99.99
2023-01-13T01:40:13.211Z,99.99
2023-01-13T01:41:12.659Z,99.99
2023-01-13T01:42:12.739Z,99.99
2023-01-13T01:43:12.685Z,99.99
2023-01-13T01:44:12.822Z,99.99
2023-01-13T01:45:12.908Z,99.99
2023-01-13T01:46:12.618Z,99.99
2023-01-13T01:47:12.801Z,99.99
2023-01-13T01:48:12.627Z,99.99
2023-01-13T01:49:12.876Z,99.99
2023-01-13T01:50:12.543Z,99.99
2023-01-13T01:51:12.929Z,99.99
2023-01-13T01:52:12.853Z,99.85
2023-01-13T01:53:13.016Z,99.99
2023-01-13T01:54:12.595Z,99.85
2023-01-13T01:55:12.803Z,99.75
2023-01-13T01:56:12.697Z,99.99
2023-01-13T01:57:12.846Z,99.99
2023-01-13T01:58:12.489Z,99.99
2023-01-13T01:59:13.693Z,99.99
2023-01-13T02:00:12.653Z,99.95
2023-01-13T02:01:12.568Z,99.99
2023-01-13T02:02:13.382Z,99.95
2023-01-13T02:03:12.388Z,99.54
2023-01-13T02:04:12.709Z,99.65
2023-01-13T02:05:12.368Z,99.44
2023-01-13T02:06:12.327Z,99.65
2023-01-13T02:07:12.695Z,99.44
2023-01-13T02:08:12.568Z,99.03
2023-01-13T02:09:12.735Z,99.85
2023-01-13T02:10:12.282Z,99.75
2023-01-13T02:11:12.264Z,99.65
2023-01-13T02:12:12.292Z,99.99
2023-01-13T02:13:12.510Z,99.99
2023-01-13T02:14:12.450Z,99.99
2023-01-13T02:15:12.428Z,99.99
2023-01-13T02:16:12.638Z,99.99
2023-01-13T02:17:12.713Z,99.99
2023-01-13T02:18:12.371Z,99.99
2023-01-13T02:19:12.177Z,99.85
2023-01-13T02:20:12.154Z,98.97
2023-01-13T02:21:12.136Z,98.93
2023-01-13T02:22:12.114Z,98.93
2023-01-13T02:23:12.424Z,97.91
2023-01-13T02:24:12.190Z,98.32
2023-01-13T02:25:12.106Z,98.62
2023-01-13T02:26:12.645Z,98.62
2023-01-13T02:27:12.560Z,98.67
2023-01-13T02:28:12.056Z,98.97
2023-01-13T02:29:12.633Z,98.77
2023-01-13T02:30:12.539Z,97.64
2023-01-13T02:31:12.492Z,94.67
2023-01-13T02:32:12.022Z,94.36
2023-01-13T02:33:12.023Z,95.18
2023-01-13T02:34:11.984Z,92.31
2023-01-13T02:35:12.575Z,90.20
2023-01-13T02:36:12.455Z,87.43
2023-01-13T02:37:12.354Z,88.51
2023-01-13T02:38:11.940Z,87.18
2023-01-13T02:39:11.965Z,86.19
2023-01-13T02:40:12.061Z,86.40
2023-01-13T02:41:11.884Z,86.81
2023-01-13T02:42:11.903Z,86.91
2023-01-13T02:43:11.859Z,85.78
2023-01-13T02:44:11.871Z,85.11
2023-01-13T02:45:12.305Z,86.13
2023-01-13T02:46:12.269Z,85.52
2023-01-13T02:47:12.111Z,85.82
2023-01-13T02:48:12.338Z,86.85
2023-01-13T02:49:11.795Z,86.44
2023-01-13T02:50:11.803Z,88.39
2023-01-13T02:51:12.327Z,87.77
2023-01-13T02:52:12.240Z,87.77
2023-01-13T02:53:12.112Z,88.74
2023-01-13T02:54:12.286Z,87.30
2023-01-13T02:55:12.173Z,87.10
2023-01-13T02:56:12.357Z,87.71
2023-01-13T02:57:12.415Z,87.40
2023-01-13T02:58:12.140Z,88.18
2023-01-13T02:59:12.036Z,87.57
2023-01-13T03:00:12.260Z,89.46
2023-01-13T03:01:12.835Z,89.76
2023-01-13T03:02:12.527Z,88.84
2023-01-13T03:03:12.229Z,89.04
2023-01-13T03:04:12.369Z,89.56
2023-01-13T03:05:12.301Z,89.97
2023-01-13T03:06:11.426Z,90.28
2023-01-13T03:07:11.485Z,89.87
2023-01-13T03:08:11.521Z,90.59
2023-01-13T03:09:11.587Z,90.48
2023-01-13T03:10:11.641Z,90.38
2023-01-13T03:11:11.691Z,89.76
2023-01-13T03:12:12.923Z,89.46
2023-01-13T03:13:11.789Z,89.01
2023-01-13T03:14:11.706Z,89.21
2023-01-13T03:15:11.919Z,89.42
2023-01-13T03:16:11.608Z,90.24
2023-01-13T03:17:11.291Z,91.27
2023-01-13T03:18:12.046Z,89.31
2023-01-13T03:19:11.333Z,88.80
2023-01-13T03:20:12.139Z,89.01
2023-01-13T03:21:12.038Z,89.83
2023-01-13T03:22:11.935Z,89.72
2023-01-13T03:23:12.414Z,89.42
2023-01-13T03:24:12.517Z,89.52
2023-01-13T03:25:11.921Z,88.90
2023-01-13T03:26:12.564Z,88.49
2023-01-13T03:27:11.987Z,88.45
2023-01-13T03:28:11.209Z,88.96
2023-01-13T03:29:11.176Z,88.70
2023-01-13T03:30:11.237Z,88.08
2023-01-13T03:31:11.292Z,88.18
2023-01-13T03:32:11.075Z,86.81
2023-01-13T03:33:11.081Z,86.81
2023-01-13T03:34:11.155Z,88.45
2023-01-13T03:35:11.032Z,88.45
2023-01-13T03:36:11.093Z,88.90
2023-01-13T03:37:11.037Z,88.29
2023-01-13T03:38:11.095Z,88.59
2023-01-13T03:39:11.154Z,89.11
2023-01-13T03:40:11.215Z,89.25
2023-01-13T03:41:11.307Z,88.84
2023-01-13T03:42:11.287Z,88.53
2023-01-13T03:43:11.389Z,87.61
2023-01-13T03:44:11.457Z,87.51
2023-01-13T03:45:11.524Z,88.43
2023-01-13T03:46:11.610Z,88.37
2023-01-13T03:47:11.650Z,88.37
2023-01-13T03:48:11.682Z,87.96
2023-01-13T03:49:11.169Z,87.45
2023-01-13T03:50:11.793Z,86.72
2023-01-13T03:51:11.427Z,86.52
2023-01-13T03:52:11.299Z,86.00
2023-01-13T03:53:11.543Z,86.00
2023-01-13T03:54:11.323Z,86.52
2023-01-13T03:55:11.596Z,86.83
2023-01-13T03:56:10.818Z,86.83
2023-01-13T03:57:11.666Z,86.72
2023-01-13T03:58:11.597Z,87.38
2023-01-13T03:59:11.474Z,86.66
2023-01-13T04:00:11.641Z,87.07
2023-01-13T04:01:11.633Z,87.07
2023-01-13T04:02:11.953Z,86.97
2023-01-13T04:03:10.680Z,87.18
2023-01-13T04:04:10.751Z,86.66
2023-01-13T04:05:10.756Z,86.97
2023-01-13T04:06:10.817Z,87.59
2023-01-13T04:07:10.876Z,87.28
2023-01-13T04:08:10.935Z,87.79
2023-01-13T04:09:10.993Z,87.94
2023-01-13T04:10:11.053Z,87.94
2023-01-13T04:11:11.103Z,87.42
2023-01-13T04:12:11.167Z,87.52
2023-01-13T04:13:11.221Z,87.73
2023-01-13T04:14:11.316Z,87.63
2023-01-13T04:15:11.344Z,87.63
2023-01-13T04:16:11.398Z,87.32
2023-01-13T04:17:10.596Z,87.32
2023-01-13T04:18:11.559Z,87.32
2023-01-13T04:19:11.350Z,87.52
2023-01-13T04:20:11.034Z,87.01
2023-01-13T04:21:11.403Z,87.63
2023-01-13T04:22:11.314Z,87.73
2023-01-13T04:23:11.224Z,87.52
2023-01-13T04:24:11.364Z,88.45
2023-01-13T04:25:10.663Z,88.59
2023-01-13T04:26:11.195Z,89.01
2023-01-13T04:27:10.402Z,88.49
2023-01-13T04:28:10.353Z,87.77
2023-01-13T04:29:14.046Z,87.87
2023-01-13T04:30:11.043Z,87.52
2023-01-13T04:31:11.383Z,88.04
2023-01-13T04:32:10.320Z,88.56
2023-01-13T04:33:10.429Z,87.73
2023-01-13T04:34:10.403Z,88.24
2023-01-13T04:35:10.468Z,88.35
2023-01-13T04:36:10.527Z,88.70
2023-01-13T04:37:10.334Z,89.42
2023-01-13T04:38:10.628Z,89.83
2023-01-13T04:39:10.305Z,89.62
2023-01-13T04:40:10.670Z,89.11
2023-01-13T04:41:10.808Z,89.83
2023-01-13T04:42:10.950Z,89.52
2023-01-13T04:43:10.153Z,89.73
2023-01-13T04:44:10.981Z,89.22
2023-01-13T04:45:10.883Z,89.31
2023-01-13T04:46:11.176Z,89.15
2023-01-13T04:47:10.974Z,89.62
2023-01-13T04:48:11.338Z,89.52
2023-01-13T04:49:11.018Z,89.77
2023-01-13T04:50:10.055Z,89.87
2023-01-13T04:51:10.800Z,89.36
2023-01-13T04:52:10.984Z,89.77
2023-01-13T04:53:10.911Z,88.95
2023-01-13T04:54:10.779Z,89.77
2023-01-13T04:55:10.959Z,88.74
2023-01-13T04:56:10.863Z,88.18
2023-01-13T04:57:10.763Z,87.57
2023-01-13T04:58:10.924Z,88.59
2023-01-13T04:59:09.946Z,87.77
2023-01-13T05:00:10.017Z,87.15
2023-01-13T05:01:10.159Z,86.85
2023-01-13T05:02:10.200Z,87.57
2023-01-13T05:03:10.175Z,88.59
2023-01-13T05:04:10.309Z,87.19
2023-01-13T05:05:10.350Z,86.88
2023-01-13T05:06:10.328Z,87.30
2023-01-13T05:07:09.845Z,86.88
2023-01-13T05:08:10.440Z,87.09
2023-01-13T05:09:10.491Z,87.09
2023-01-13T05:10:10.551Z,87.19
2023-01-13T05:11:10.012Z,87.60
2023-01-13T05:12:09.807Z,87.75
2023-01-13T05:13:10.501Z,87.96
2023-01-13T05:14:10.038Z,88.06
2023-01-13T05:15:10.574Z,87.75
2023-01-13T05:16:11.421Z,88.57
2023-01-13T05:17:09.881Z,88.72
2023-01-13T05:18:10.549Z,88.62
2023-01-13T05:19:09.783Z,88.62
2023-01-13T05:20:10.600Z,88.72
2023-01-13T05:21:10.037Z,88.62
2023-01-13T05:22:10.027Z,88.41
2023-01-13T05:23:10.590Z,88.82
2023-01-13T05:24:10.487Z,88.72
2023-01-13T05:25:10.371Z,88.86
2023-01-13T05:26:09.624Z,89.07
2023-01-13T05:27:09.861Z,88.65
2023-01-13T05:28:09.612Z,89.58
2023-01-13T05:29:09.629Z,88.86
2023-01-13T05:30:09.679Z,88.96
2023-01-13T05:31:09.880Z,89.17
2023-01-13T05:32:09.806Z,89.48
2023-01-13T05:33:09.856Z,89.38
2023-01-13T05:34:09.914Z,89.07
2023-01-13T05:35:09.992Z,89.89
2023-01-13T05:36:10.052Z,90.31
2023-01-13T05:37:09.743Z,89.83
2023-01-13T05:38:10.150Z,89.42
2023-01-13T05:39:10.197Z,89.28
2023-01-13T05:40:10.230Z,89.69
2023-01-13T05:41:10.133Z,89.07
2023-01-13T05:42:10.295Z,89.17
2023-01-13T05:43:10.430Z,89.48
2023-01-13T05:44:10.005Z,88.96
2023-01-13T05:45:09.323Z,89.69
2023-01-13T05:46:10.204Z,90.00
2023-01-13T05:47:09.304Z,89.79
2023-01-13T05:48:09.378Z,89.94
2023-01-13T05:49:09.385Z,89.32
2023-01-13T05:50:09.489Z,89.83
2023-01-13T05:51:09.508Z,89.62
2023-01-13T05:52:09.268Z,90.04
2023-01-13T05:53:09.316Z,89.42
2023-01-13T05:54:09.261Z,89.62
2023-01-13T05:55:09.442Z,89.62
2023-01-13T05:56:09.215Z,89.83
2023-01-13T05:57:09.253Z,89.94
2023-01-13T05:58:09.386Z,89.73
2023-01-13T05:59:09.835Z,89.94
2023-01-13T06:00:09.441Z,89.94
2023-01-13T06:01:10.001Z,89.73
2023-01-13T06:02:09.534Z,89.01
2023-01-13T06:03:09.679Z,89.17
2023-01-13T06:04:09.658Z,89.58
2023-01-13T06:05:09.687Z,89.89
2023-01-13T06:06:09.719Z,90.25
2023-01-13T06:07:09.839Z,90.66
2023-01-13T06:08:09.575Z,89.83
2023-01-13T06:09:09.855Z,89.11
2023-01-13T06:10:09.917Z,89.52
2023-01-13T06:11:09.168Z,88.90
2023-01-13T06:12:09.143Z,89.17
2023-01-13T06:13:09.620Z,88.65
2023-01-13T06:14:09.583Z,88.35
2023-01-13T06:15:09.405Z,88.96
2023-01-13T06:16:09.440Z,88.56
2023-01-13T06:17:09.791Z,88.86
2023-01-13T06:18:10.013Z,88.65
2023-01-13T06:19:09.451Z,88.45
2023-01-13T06:20:09.023Z,88.31
2023-01-13T06:21:14.854Z,87.79
2023-01-13T06:22:08.861Z,87.90
2023-01-13T06:23:08.832Z,86.52
2023-01-13T06:24:08.942Z,87.24
2023-01-13T06:25:08.814Z,87.44
2023-01-13T06:26:09.116Z,87.24
2023-01-13T06:27:08.795Z,87.75
2023-01-13T06:28:08.813Z,86.82
2023-01-13T06:29:08.831Z,86.82
2023-01-13T06:30:08.812Z,86.06
2023-01-13T06:31:08.884Z,86.06
2023-01-13T06:32:08.852Z,86.06
2023-01-13T06:33:08.702Z,85.86
2023-01-13T06:34:08.726Z,86.16
2023-01-13T06:35:08.796Z,86.16
2023-01-13T06:36:08.858Z,86.79
2023-01-13T06:37:08.794Z,86.68
2023-01-13T06:38:08.761Z,85.75
2023-01-13T06:39:08.786Z,86.27
2023-01-13T06:40:08.761Z,86.54
2023-01-13T06:41:08.772Z,86.58
2023-01-13T06:42:08.779Z,87.09
2023-01-13T06:43:08.770Z,86.88
2023-01-13T06:44:08.793Z,87.30
2023-01-13T06:45:08.783Z,86.79
2023-01-13T06:46:08.773Z,86.99
2023-01-13T06:47:08.844Z,87.19
2023-01-13T06:48:08.774Z,87.09
2023-01-13T06:49:08.774Z,86.88
2023-01-13T06:50:08.544Z,87.19
2023-01-13T06:51:08.761Z,87.40
2023-01-13T06:52:08.856Z,86.99
2023-01-13T06:53:08.771Z,86.79
2023-01-13T06:54:08.777Z,87.09
2023-01-13T06:55:08.862Z,87.40
2023-01-13T06:56:08.353Z,86.74
2023-01-13T06:57:08.371Z,87.51
2023-01-13T06:58:08.435Z,87.57
2023-01-13T06:59:08.521Z,87.71
2023-01-13T07:00:08.546Z,87.92
2023-01-13T07:01:08.490Z,88.37
2023-01-13T07:02:08.745Z,88.57
2023-01-13T07:03:08.710Z,88.26
2023-01-13T07:04:08.312Z,88.57
2023-01-13T07:05:08.221Z,88.99
2023-01-13T07:06:08.632Z,89.09
2023-01-13T07:07:08.202Z,89.23
2023-01-13T07:08:08.849Z,89.85
2023-01-13T07:09:08.864Z,89.75
2023-01-13T07:10:08.805Z,89.95
2023-01-13T07:11:08.249Z,89.65
2023-01-13T07:12:08.759Z,89.34
2023-01-13T07:13:08.758Z,89.54
2023-01-13T07:14:08.767Z,89.13
2023-01-13T07:15:08.298Z,89.23
2023-01-13T07:16:08.863Z,89.34
2023-01-13T07:17:08.775Z,88.51
2023-01-13T07:18:08.760Z,87.99
2023-01-13T07:19:08.827Z,88.41
2023-01-13T07:20:08.755Z,87.65
2023-01-13T07:21:08.753Z,88.17
2023-01-13T07:22:08.872Z,87.75
2023-01-13T07:23:08.775Z,87.65
2023-01-13T07:24:08.018Z,87.34
2023-01-13T07:25:08.860Z,87.75
2023-01-13T07:26:07.968Z,87.65
2023-01-13T07:27:07.928Z,87.65
2023-01-13T07:28:07.977Z,87.65
2023-01-13T07:29:08.037Z,87.54
2023-01-13T07:30:08.185Z,87.92
2023-01-13T07:31:08.096Z,88.17
2023-01-13T07:32:08.295Z,87.85
2023-01-13T07:33:08.295Z,88.57
2023-01-13T07:34:08.298Z,87.65
2023-01-13T07:35:08.233Z,87.40
2023-01-13T07:36:08.445Z,87.19
2023-01-13T07:37:07.851Z,86.99
2023-01-13T07:38:08.539Z,87.40
2023-01-13T07:39:08.537Z,86.99
2023-01-13T07:40:07.782Z,87.19
2023-01-13T07:41:07.757Z,86.16
2023-01-13T07:42:07.834Z,86.33
2023-01-13T07:43:08.052Z,86.85
2023-01-13T07:44:08.805Z,86.99
2023-01-13T07:45:10.278Z,87.30
2023-01-13T07:46:07.771Z,87.40
2023-01-13T07:47:08.528Z,87.19
2023-01-13T07:48:07.700Z,87.30
2023-01-13T07:49:08.585Z,87.65
2023-01-13T07:50:08.488Z,87.75
2023-01-13T07:51:08.400Z,87.65
2023-01-13T07:52:08.849Z,87.65
2023-01-13T07:53:08.469Z,87.54
2023-01-13T07:54:08.354Z,87.44
2023-01-13T07:55:08.022Z,88.17
2023-01-13T07:56:08.412Z,88.37
2023-01-13T07:57:07.588Z,87.85
2023-01-13T07:58:07.673Z,87.54
2023-01-13T07:59:07.698Z,88.17
2023-01-13T08:00:07.757Z,87.65
2023-01-13T08:01:07.932Z,87.65
2023-01-13T08:02:07.657Z,87.54
2023-01-13T08:03:08.007Z,87.44
2023-01-13T08:04:07.494Z,87.65
2023-01-13T08:05:11.699Z,87.85
2023-01-13T08:06:07.474Z,87.65
2023-01-13T08:07:07.420Z,87.44
2023-01-13T08:08:07.420Z,86.93
2023-01-13T08:09:07.416Z,86.72
2023-01-13T08:10:07.403Z,86.82
2023-01-13T08:11:07.460Z,87.96
2023-01-13T08:12:07.416Z,87.54
2023-01-13T08:13:07.314Z,86.68
2023-01-13T08:14:07.341Z,87.09
2023-01-13T08:15:07.411Z,87.19
2023-01-13T08:16:07.415Z,86.58
2023-01-13T08:17:07.480Z,86.37
2023-01-13T08:18:07.431Z,86.79
2023-01-13T08:19:07.313Z,86.68
2023-01-13T08:20:07.413Z,86.68
2023-01-13T08:21:07.441Z,86.16
2023-01-13T08:22:07.203Z,86.79
2023-01-13T08:23:07.699Z,86.27
2023-01-13T08:24:07.426Z,85.55
2023-01-13T08:25:07.413Z,85.44
2023-01-13T08:26:07.431Z,85.14
2023-01-13T08:27:07.415Z,85.30
2023-01-13T08:28:07.410Z,84.07
2023-01-13T08:29:07.341Z,83.97
2023-01-13T08:30:07.139Z,84.79
2023-01-13T08:31:07.333Z,84.38
2023-01-13T08:32:07.433Z,84.69
2023-01-13T08:33:07.433Z,84.38
2023-01-13T08:34:07.073Z,84.99
2023-01-13T08:35:07.131Z,85.30
2023-01-13T08:36:07.207Z,84.79
2023-01-13T08:37:07.175Z,84.79
2023-01-13T08:38:07.251Z,85.51
2023-01-13T08:39:07.265Z,84.69
2023-01-13T08:40:08.393Z,84.27
2023-01-13T08:41:07.282Z,84.07
2023-01-13T08:42:07.151Z,83.04
2023-01-13T08:43:07.039Z,83.14
2023-01-13T08:44:07.312Z,84.07
2023-01-13T08:45:07.442Z,84.17
2023-01-13T08:46:07.430Z,83.25
2023-01-13T08:47:07.462Z,83.14
2023-01-13T08:48:06.879Z,82.93
2023-01-13T08:49:07.489Z,83.72
2023-01-13T08:50:07.422Z,83.65
2023-01-13T08:51:07.408Z,81.91
2023-01-13T08:52:07.412Z,81.91
2023-01-13T08:53:07.439Z,82.73
2023-01-13T08:54:06.838Z,82.53
2023-01-13T08:55:07.513Z,82.59
2023-01-13T08:56:07.048Z,82.18
2023-01-13T08:57:06.959Z,81.25
2023-01-13T08:58:15.219Z,82.28
2023-01-13T08:59:07.766Z,81.67
2023-01-13T09:00:07.440Z,81.46
2023-01-13T09:01:07.534Z,81.87
2023-01-13T09:02:07.554Z,82.28
2023-01-13T09:03:07.420Z,81.87
2023-01-13T09:04:07.550Z,82.07
2023-01-13T09:05:07.508Z,81.76
2023-01-13T09:06:07.461Z,80.94
2023-01-13T09:07:07.039Z,81.97
2023-01-13T09:08:07.424Z,81.25
2023-01-13T09:09:06.890Z,81.15
2023-01-13T09:10:07.505Z,81.62
2023-01-13T09:11:07.418Z,82.04
2023-01-13T09:12:07.010Z,82.34
2023-01-13T09:13:06.828Z,80.84
2023-01-13T09:14:07.358Z,81.46
2023-01-13T09:15:07.298Z,81.11
2023-01-13T09:16:07.458Z,81.67
2023-01-13T09:17:07.302Z,81.11
2023-01-13T09:18:06.800Z,81.01
2023-01-13T09:19:06.749Z,82.34
2023-01-13T09:20:07.083Z,81.83
2023-01-13T09:21:07.208Z,82.45
2023-01-13T09:22:06.431Z,81.73
2023-01-13T09:23:09.711Z,82.14
2023-01-13T09:24:06.407Z,80.80
2023-01-13T09:25:06.619Z,81.62
2023-01-13T09:26:06.546Z,82.65
2023-01-13T09:27:06.558Z,81.15
2023-01-13T09:28:06.579Z,82.04
2023-01-13T09:29:06.674Z,80.91
2023-01-13T09:30:06.621Z,80.43
2023-01-13T09:31:06.396Z,80.60
2023-01-13T09:32:06.684Z,80.91
2023-01-13T09:33:06.709Z,81.32
2023-01-13T09:34:06.734Z,80.49
2023-01-13T09:35:06.760Z,80.84
2023-01-13T09:36:06.774Z,80.12
2023-01-13T09:37:06.826Z,79.61
2023-01-13T09:38:06.377Z,79.26
2023-01-13T09:39:06.853Z,79.26
2023-01-13T09:40:06.194Z,79.30
2023-01-13T09:41:06.978Z,79.40
2023-01-13T09:42:06.956Z,79.40
2023-01-13T09:43:07.015Z,79.67
2023-01-13T09:44:06.125Z,79.47
2023-01-13T09:45:06.928Z,80.08
2023-01-13T09:46:06.590Z,80.49
2023-01-13T09:47:06.975Z,80.29
2023-01-13T09:48:06.155Z,79.53
2023-01-13T09:49:06.801Z,79.84
2023-01-13T09:50:06.969Z,79.53
2023-01-13T09:51:06.920Z,79.94
2023-01-13T09:52:06.763Z,80.25
2023-01-13T09:53:06.026Z,78.50
2023-01-13T09:54:06.815Z,78.20
2023-01-13T09:55:06.736Z,78.61
2023-01-13T09:56:06.884Z,77.99
2023-01-13T09:57:06.798Z,77.17
2023-01-13T09:58:08.633Z,76.86
2023-01-13T09:59:05.943Z,77.48
2023-01-13T10:00:06.085Z,77.06
2023-01-13T10:01:06.067Z,76.90
2023-01-13T10:02:06.085Z,76.79
2023-01-13T10:03:06.190Z,77.41
2023-01-13T10:04:07.252Z,77.00
2023-01-13T10:05:06.903Z,77.72
2023-01-13T10:06:06.273Z,78.96
2023-01-13T10:07:06.342Z,78.03
2023-01-13T10:08:06.398Z,77.82
2023-01-13T10:09:06.446Z,79.26
2023-01-13T10:10:09.256Z,78.68
2023-01-13T10:11:06.626Z,78.75
2023-01-13T10:12:06.669Z,78.23
2023-01-13T10:13:06.593Z,78.33
2023-01-13T10:14:05.853Z,77.96
2023-01-13T10:15:06.578Z,78.58
2023-01-13T10:16:06.571Z,78.96
2023-01-13T10:17:06.654Z,78.68
2023-01-13T10:18:06.563Z,78.58
2023-01-13T10:19:06.492Z,79.19
2023-01-13T10:20:06.379Z,78.44
2023-01-13T10:21:06.567Z,78.75
2023-01-13T10:22:08.521Z,78.44
2023-01-13T10:23:06.343Z,79.88
2023-01-13T10:24:05.612Z,77.62
2023-01-13T10:25:05.674Z,78.13
2023-01-13T10:26:05.618Z,77.37
2023-01-13T10:27:05.597Z,77.78
2023-01-13T10:28:05.543Z,77.48
2023-01-13T10:29:05.560Z,77.58
2023-01-13T10:30:05.615Z,76.76
2023-01-13T10:31:05.712Z,76.97
2023-01-13T10:32:05.521Z,78.30
2023-01-13T10:33:05.521Z,77.17
2023-01-13T10:34:05.580Z,76.62
2023-01-13T10:35:05.731Z,76.97
2023-01-13T10:36:05.756Z,77.03
2023-01-13T10:37:05.443Z,76.62
2023-01-13T10:38:05.815Z,76.93
2023-01-13T10:39:05.678Z,78.47
2023-01-13T10:40:05.945Z,76.62
2023-01-13T10:41:05.983Z,77.13
2023-01-13T10:42:06.330Z,78.47
2023-01-13T10:43:06.257Z,77.44
2023-01-13T10:44:09.327Z,77.44
2023-01-13T10:45:06.238Z,77.85
2023-01-13T10:46:05.827Z,77.78
2023-01-13T10:47:06.081Z,77.06
2023-01-13T10:48:06.313Z,77.78
2023-01-13T10:49:05.290Z,78.20
2023-01-13T10:50:05.651Z,78.85
2023-01-13T10:51:06.049Z,78.20
2023-01-13T10:52:06.485Z,77.89
2023-01-13T10:53:06.032Z,78.40
2023-01-13T10:54:06.197Z,78.40
2023-01-13T10:55:06.081Z,78.33
2023-01-13T10:56:06.000Z,77.82
2023-01-13T10:57:06.795Z,78.64
2023-01-13T10:58:06.050Z,79.26
2023-01-13T10:59:05.220Z,79.16
2023-01-13T11:00:05.215Z,78.33
2023-01-13T11:01:05.192Z,78.33
2023-01-13T11:02:23.460Z,78.54
2023-01-13T11:03:07.191Z,79.16
2023-01-13T11:04:06.540Z,78.75
2023-01-13T11:05:05.525Z,78.03
2023-01-13T11:06:05.565Z,77.51
2023-01-13T11:07:05.064Z,77.78
2023-01-13T11:08:05.678Z,77.68
2023-01-13T11:09:05.113Z,77.99
2023-01-13T11:10:05.772Z,78.30
2023-01-13T11:11:06.610Z,76.86
2023-01-13T11:12:04.992Z,77.06
2023-01-13T11:13:05.934Z,78.30
2023-01-13T11:14:05.059Z,78.40
2023-01-13T11:15:05.041Z,77.89
2023-01-13T11:16:05.894Z,78.27
2023-01-13T11:17:05.768Z,78.06
2023-01-13T11:18:05.683Z,77.17
2023-01-13T11:19:05.699Z,76.72
2023-01-13T11:20:05.745Z,77.06
2023-01-13T11:21:05.641Z,77.68
2023-01-13T11:22:04.843Z,76.45
2023-01-13T11:23:05.699Z,77.58
2023-01-13T11:24:05.008Z,77.06
2023-01-13T11:25:04.855Z,77.37
2023-01-13T11:26:05.218Z,76.86
2023-01-13T11:27:05.598Z,77.17
2023-01-13T11:28:04.770Z,76.97
2023-01-13T11:29:04.918Z,77.06
2023-01-13T11:30:04.927Z,76.65
2023-01-13T11:31:04.955Z,77.37
2023-01-13T11:32:04.973Z,77.68
2023-01-13T11:33:05.033Z,76.55
2023-01-13T11:34:05.077Z,77.17
2023-01-13T11:35:05.149Z,76.45
2023-01-13T11:36:05.199Z,76.65
2023-01-13T11:37:04.669Z,76.76
2023-01-13T11:38:05.309Z,77.78
2023-01-13T11:39:05.369Z,76.55
2023-01-13T11:40:05.388Z,76.65
2023-01-13T11:41:04.837Z,76.45
2023-01-13T11:42:05.419Z,77.37
2023-01-13T11:43:04.647Z,77.37
2023-01-13T11:44:05.328Z,77.17
2023-01-13T11:45:05.476Z,77.37
2023-01-13T11:46:04.613Z,77.23
2023-01-13T11:47:04.590Z,77.34
2023-01-13T11:48:05.368Z,77.99
2023-01-13T11:49:05.262Z,77.23
2023-01-13T11:50:05.430Z,77.44
2023-01-13T11:51:04.689Z,77.75
2023-01-13T11:52:05.324Z,77.27
2023-01-13T11:53:05.423Z,78.20
2023-01-13T11:54:05.285Z,78.09
2023-01-13T11:55:05.206Z,78.20
2023-01-13T11:56:05.358Z,78.61
2023-01-13T11:57:04.405Z,77.78
2023-01-13T11:58:04.406Z,78.40
2023-01-13T11:59:04.475Z,78.40
2023-01-13T12:00:04.523Z,78.33
2023-01-13T12:01:05.181Z,79.22
2023-01-13T12:02:04.676Z,79.33
2023-01-13T12:03:04.692Z,79.43
2023-01-13T12:04:04.298Z,78.92
2023-01-13T12:05:04.275Z,78.92
2023-01-13T12:06:04.286Z,79.94
2023-01-13T12:07:04.266Z,78.64
2023-01-13T12:08:04.269Z,79.36
2023-01-13T12:09:04.408Z,79.88
2023-01-13T12:10:05.023Z,79.33
2023-01-13T12:11:04.259Z,79.33
2023-01-13T12:12:04.181Z,78.20
2023-01-13T12:13:04.252Z,78.61
2023-01-13T12:14:04.234Z,78.40
2023-01-13T12:15:04.285Z,77.58
2023-01-13T12:16:06.965Z,77.89
2023-01-13T12:17:04.620Z,77.78
2023-01-13T12:18:04.233Z,77.89
2023-01-13T12:19:04.256Z,78.71
2023-01-13T12:20:04.254Z,76.97
2023-01-13T12:21:04.086Z,77.27
2023-01-13T12:22:04.167Z,77.37
2023-01-13T12:23:04.044Z,77.06
2023-01-13T12:24:04.256Z,77.99
2023-01-13T12:25:04.343Z,77.27
2023-01-13T12:26:04.345Z,77.78
2023-01-13T12:27:04.002Z,77.78
2023-01-13T12:28:03.981Z,78.81
2023-01-13T12:29:04.101Z,77.48
2023-01-13T12:30:04.300Z,75.83
2023-01-13T12:31:04.225Z,76.82
2023-01-13T12:32:03.978Z,77.55
2023-01-13T12:33:05.919Z,76.42
2023-01-13T12:34:04.024Z,77.13
2023-01-13T12:35:04.254Z,76.97
2023-01-13T12:36:03.947Z,76.65
2023-01-13T12:37:03.864Z,76.65
2023-01-13T12:38:03.854Z,75.83
2023-01-13T12:39:04.273Z,76.65
2023-01-13T12:40:04.235Z,76.86
2023-01-13T12:41:04.145Z,76.55
2023-01-13T12:42:03.943Z,76.25
2023-01-13T12:43:04.245Z,77.99
2023-01-13T12:44:03.778Z,76.31
2023-01-13T12:45:03.826Z,76.10
2023-01-13T12:46:04.168Z,76.51
2023-01-13T12:47:04.251Z,76.31
2023-01-13T12:48:03.710Z,75.90
2023-01-13T12:49:03.713Z,74.36
2023-01-13T12:50:03.704Z,74.67
2023-01-13T12:51:03.876Z,74.87
2023-01-13T12:52:03.664Z,75.49